Time;durP1;ratioP1;P1;durP2;ratioP2;P2;SDS_P1;SDS_P2;PMS_P1;PMS_P2;Temp;Humidity;BMP_temperature;BMP_pressure;BME280_temperature;BME280_humidity;BME280_pressure;Samples;Min_cycle;Max_cycle;Signal;HPM_P1;HPM_P2
2021/08/28 00:00:51;;;;;;;;;;;;;;;24.46;51.33;99611.72;2056099;28;19924;-64
2021/08/28 00:01:51;;;;;;;;;;;;;;;24.45;51.17;99609.97;2059999;28;19921;-64
2021/08/28 00:02:51;;;;;;;;;;;;;;;24.45;51.22;99612.72;2057713;28;19913;-64
2021/08/28 00:03:51;;;;;;;;;;;;;;;24.45;51.35;99609.97;2059946;28;19920;-64
2021/08/28 00:04:53;;;;;;;;;;;;;;;24.45;51.34;99609.97;2053059;28;19954;-64
2021/08/28 00:05:53;;;;;;;;;;;;;;;24.44;51.29;99609.13;2060117;28;20004;-64
2021/08/28 00:06:54;;;;;;;;;;;;;;;24.45;51.35;99612.72;2061651;28;20192;-64
2021/08/28 00:07:54;;;;;;;;;;;;;;;24.46;51.40;99617.25;2058036;28;20835;-64
2021/08/28 00:08:55;;;;;;;;;;;;;;;24.45;51.32;99612.72;2057455;28;19921;-64
2021/08/28 00:09:55;;;;;;;;;;;;;;;24.44;51.30;99611.03;2056173;28;20136;-63
2021/08/28 00:10:55;;;;;;;;;;;;;;;24.44;51.55;99608.28;2059228;28;19909;-64
2021/08/28 00:11:55;;;;;;;;;;;;;;;24.44;51.33;99609.13;2063477;28;20199;-64
2021/08/28 00:12:56;;;;;;;;;;;;;;;24.44;51.41;99619.31;2055777;28;19928;-64
2021/08/28 00:13:56;;;;;;;;;;;;;;;24.44;51.35;99619.31;2055690;28;19952;-64
2021/08/28 00:14:57;;;;;;;;;;;;;;;24.43;51.37;99618.47;2071841;28;21198;-64
2021/08/28 00:15:57;;;;;;;;;;;;;;;24.43;51.42;99612.94;2068221;28;19928;-64
2021/08/28 00:16:57;;;;;;;;;;;;;;;24.43;51.42;99617.63;2054573;28;19945;-64
2021/08/28 00:17:58;;;;;;;;;;;;;;;24.44;51.20;99613.78;2054951;28;20822;-64
2021/08/28 00:18:58;;;;;;;;;;;;;;;24.43;51.33;99615.69;2059196;28;19921;-64
2021/08/28 00:20:06;;;;;;;;;;;;;;;24.42;51.26;99610.38;2056364;28;20674;-64
2021/08/28 00:21:06;;;;;;;;;;;;;;;24.42;51.38;99604.88;2056683;28;19921;-64
2021/08/28 00:22:07;;;;;;;;;;;;;;;24.43;51.37;99610.19;2058133;28;19921;-64
2021/08/28 00:23:07;;;;;;;;;;;;;;;24.43;51.29;99603.84;2057756;28;20281;-64
2021/08/28 00:24:08;;;;;;;;;;;;;;;24.42;51.33;99608.47;2053981;28;20333;-64
2021/08/28 00:25:08;;;;;;;;;;;;;;;24.41;51.33;99611.44;2056920;28;19975;-64
2021/08/28 00:26:09;;;;;;;;;;;;;;;24.41;51.39;99606.78;2056799;28;20245;-64
2021/08/28 00:27:09;;;;;;;;;;;;;;;24.41;51.33;99612.28;2060040;28;20000;-64
2021/08/28 00:28:09;;;;;;;;;;;;;;;24.41;51.35;99611.44;2059676;28;19921;-64
2021/08/28 00:29:09;;;;;;;;;;;;;;;24.41;51.40;99611.44;2059818;28;19922;-63
2021/08/28 00:30:11;;;;;;;;;;;;;;;24.41;51.45;99614.19;2056006;28;19925;-63
2021/08/28 00:31:11;;;;;;;;;;;;;;;24.40;51.33;99607.84;2056966;28;20098;-63
2021/08/28 00:32:11;;;;;;;;;;;;;;;24.41;51.38;99612.28;2056160;28;19921;-64
2021/08/28 00:33:13;;;;;;;;;;;;;;;24.39;51.42;99606.97;2056921;28;19992;-64
2021/08/28 00:34:14;;;;;;;;;;;;;;;24.39;51.31;99606.97;2059426;28;19926;-64
2021/08/28 00:35:14;;;;;;;;;;;;;;;24.40;51.40;99613.34;2055626;28;19922;-63
2021/08/28 00:36:14;;;;;;;;;;;;;;;24.39;51.38;99608.88;2057957;28;20515;-63
2021/08/28 00:37:15;;;;;;;;;;;;;;;24.39;51.37;99601.47;2050657;28;19929;-65
2021/08/28 00:38:15;;;;;;;;;;;;;;;24.40;51.45;99607.84;2058542;28;19963;-63
2021/08/28 00:39:15;;;;;;;;;;;;;;;24.39;51.44;99606.97;2058786;28;19920;-63
2021/08/28 00:40:16;;;;;;;;;;;;;;;24.39;51.31;99606.13;2058813;28;19926;-63
2021/08/28 00:41:16;;;;;;;;;;;;;;;24.39;51.44;99598.69;2056634;28;20447;-63
2021/08/28 00:42:16;;;;;;;;;;;;;;;24.39;51.38;99608.88;2061167;28;20300;-61
2021/08/28 00:43:17;;;;;;;;;;;;;;;24.39;51.38;99601.47;2058200;28;19976;-63
2021/08/28 00:44:17;;;;;;;;;;;;;;;24.38;51.49;99599.75;2058668;28;19953;-63
2021/08/28 00:45:18;;;;;;;;;;;;;;;24.38;51.34;99602.50;2059753;28;20654;-63
2021/08/28 00:46:18;;;;;;;;;;;;;;;24.38;51.46;99599.75;2056136;28;20392;-63
2021/08/28 00:47:18;;;;;;;;;;;;;;;24.38;51.39;99596.16;2056849;28;19925;-63
2021/08/28 00:48:19;;;;;;;;;;;;;;;24.38;51.46;99602.50;2064982;28;19925;-63
2021/08/28 00:49:19;;;;;;;;;;;;;;;24.37;51.37;99597.19;2056282;28;19928;-63
2021/08/28 00:50:21;;;;;;;;;;;;;;;24.38;51.52;99602.50;2056652;28;20397;-63
2021/08/28 00:51:21;;;;;;;;;;;;;;;24.37;51.42;99598.03;2054736;28;20017;-63
2021/08/28 00:52:22;;;;;;;;;;;;;;;24.37;51.49;99600.78;2058300;28;19956;-63
2021/08/28 00:53:22;;;;;;;;;;;;;;;24.37;51.46;99603.53;2056921;28;20574;-63
2021/08/28 00:54:22;;;;;;;;;;;;;;;24.37;51.37;99606.31;2055780;28;19910;-63
2021/08/28 00:55:26;;;;;;;;;;;;;;;24.36;51.39;99601.84;2058922;28;19948;-63
2021/08/28 00:56:27;;;;;;;;;;;;;;;24.37;51.50;99602.69;2057874;28;20365;-63
2021/08/28 00:57:27;;;;;;;;;;;;;;;24.36;51.43;99601.84;2055978;28;20328;-63
2021/08/28 00:58:27;;;;;;;;;;;;;;;24.35;51.36;99602.91;2058146;28;19917;-63
2021/08/28 00:59:28;;;;;;;;;;;;;;;24.35;51.33;99597.41;2058367;28;20392;-63
2021/08/28 01:00:29;;;;;;;;;;;;;;;24.37;51.47;99597.19;2059624;28;19924;-63
2021/08/28 01:01:32;;;;;;;;;;;;;;;24.36;51.49;99596.34;2056093;28;19921;-63
2021/08/28 01:02:34;;;;;;;;;;;;;;;24.36;51.38;99601.84;2057640;28;19920;-63
2021/08/28 01:03:35;;;;;;;;;;;;;;;24.36;51.43;99601.84;2058433;28;19957;-63
2021/08/28 01:04:45;;;;;;;;;;;;;;;24.36;51.40;99595.50;2060288;28;19921;-63
2021/08/28 01:05:51;;;;;;;;;;;;;;;24.35;51.40;99602.91;2057443;28;20036;-64
2021/08/28 01:07:04;;;;;;;;;;;;;;;24.35;51.47;99600.16;2057707;28;19976;-64
2021/08/28 01:08:08;;;;;;;;;;;;;;;24.35;51.35;99597.41;2055979;28;19967;-63
2021/08/28 01:09:13;;;;;;;;;;;;;;;24.35;51.35;99600.16;2053441;28;20440;-64
2021/08/28 01:10:15;;;;;;;;;;;;;;;24.35;51.34;99602.91;2054571;28;19922;-63
2021/08/28 01:11:18;;;;;;;;;;;;;;;24.35;51.46;99600.16;2054141;28;19922;-64
2021/08/28 01:12:20;;;;;;;;;;;;;;;24.34;51.45;99595.69;2070306;28;19990;-63
2021/08/28 01:13:22;;;;;;;;;;;;;;;24.34;51.34;99592.94;2075930;28;20651;-63
2021/08/28 01:14:26;;;;;;;;;;;;;;;24.34;51.43;99592.94;2054819;28;20219;-63
2021/08/28 01:15:27;;;;;;;;;;;;;;;24.34;51.52;99603.09;2058978;28;19921;-63
2021/08/28 01:16:29;;;;;;;;;;;;;;;24.34;51.41;99598.44;2055838;28;19922;-63
2021/08/28 01:17:30;;;;;;;;;;;;;;;24.33;51.48;99594.00;2052854;28;20462;-64
2021/08/28 01:18:31;;;;;;;;;;;;;;;24.34;51.40;99592.94;2057454;28;19922;-63
2021/08/28 01:19:35;;;;;;;;;;;;;;;24.33;51.44;99591.25;2061571;28;19917;-63
2021/08/28 01:20:40;;;;;;;;;;;;;;;24.33;51.50;99587.63;2058968;28;20798;-64
2021/08/28 01:21:41;;;;;;;;;;;;;;;24.33;51.40;99591.25;2059940;28;19913;-63
2021/08/28 01:22:42;;;;;;;;;;;;;;;24.33;51.42;99596.75;2057379;28;20458;-63
2021/08/28 01:23:43;;;;;;;;;;;;;;;24.34;51.41;99592.94;2061060;28;19924;-65
2021/08/28 01:24:44;;;;;;;;;;;;;;;24.34;51.46;99592.09;2072397;28;20115;-65
2021/08/28 01:25:46;;;;;;;;;;;;;;;24.33;51.59;99596.75;2072639;28;19951;-64
2021/08/28 01:26:54;;;;;;;;;;;;;;;24.33;51.34;99596.75;2056182;28;19921;-65
2021/08/28 01:27:59;;;;;;;;;;;;;;;24.33;51.42;99596.75;2056684;28;19917;-64
2021/08/28 01:29:09;;;;;;;;;;;;;;;24.33;51.40;99601.41;2057906;28;19921;-65
2021/08/28 01:30:10;;;;;;;;;;;;;;;24.31;51.35;99598.84;2059193;28;19918;-64
2021/08/28 01:31:11;;;;;;;;;;;;;;;24.32;51.43;99592.28;2056400;28;20017;-63
2021/08/28 01:32:13;;;;;;;;;;;;;;;24.31;51.23;99593.34;2055241;28;19918;-65
2021/08/28 01:33:14;;;;;;;;;;;;;;;24.33;51.34;99595.91;2060040;28;20208;-64
2021/08/28 01:34:16;;;;;;;;;;;;;;;24.32;51.29;99595.03;2059043;28;19966;-64
2021/08/28 01:35:16;;;;;;;;;;;;;;;24.32;51.45;99595.03;2057897;28;19914;-64
2021/08/28 01:36:17;;;;;;;;;;;;;;;24.32;51.39;99586.75;2061558;28;19959;-64
2021/08/28 01:37:19;;;;;;;;;;;;;;;24.32;51.27;99592.28;2056772;28;19918;-64
2021/08/28 01:38:19;;;;;;;;;;;;;;;24.33;51.28;99593.16;2061884;28;19933;-64
2021/08/28 01:39:20;;;;;;;;;;;;;;;24.32;51.30;99596.94;2055729;28;19925;-64
2021/08/28 01:40:21;;;;;;;;;;;;;;;24.32;51.22;99594.19;2056933;28;19917;-64
2021/08/28 01:41:21;;;;;;;;;;;;;;;24.32;51.26;99594.19;2055537;28;19921;-65
2021/08/28 01:42:23;;;;;;;;;;;;;;;24.31;51.36;99593.34;2068713;28;19913;-64
2021/08/28 01:43:23;;;;;;;;;;;;;;;24.31;51.29;99593.34;2067205;28;20411;-65
2021/08/28 01:44:24;;;;;;;;;;;;;;;24.30;51.28;99597.16;2062762;28;20553;-64
2021/08/28 01:45:28;;;;;;;;;;;;;;;24.31;51.37;99598.84;2053984;28;19949;-64
2021/08/28 01:46:28;;;;;;;;;;;;;;;24.32;51.28;99599.69;2063165;28;20628;-64
2021/08/28 01:47:29;;;;;;;;;;;;;;;24.32;51.30;99600.53;2059200;28;20008;-64
2021/08/28 01:48:31;;;;;;;;;;;;;;;24.32;51.28;99600.53;2060698;28;19922;-65
2021/08/28 01:49:32;;;;;;;;;;;;;;;24.31;51.32;99596.09;2058646;28;19926;-64
2021/08/28 01:50:33;;;;;;;;;;;;;;;24.32;51.33;99596.94;2058397;28;19925;-64
2021/08/28 01:51:34;;;;;;;;;;;;;;;24.32;51.27;99603.28;2058591;28;19921;-64
2021/08/28 01:52:34;;;;;;;;;;;;;;;24.31;51.14;99596.09;2057439;28;19921;-64
2021/08/28 01:53:34;;;;;;;;;;;;;;;24.31;51.31;99595.25;2059298;28;19921;-64
2021/08/28 01:54:35;;;;;;;;;;;;;;;24.30;51.37;99597.16;2059062;28;19921;-64
2021/08/28 01:55:35;;;;;;;;;;;;;;;24.30;51.39;99597.16;2061687;28;20398;-64
2021/08/28 01:56:35;;;;;;;;;;;;;;;24.31;51.23;99601.59;2066640;28;20720;-65
2021/08/28 01:57:36;;;;;;;;;;;;;;;24.30;51.19;99602.66;2064795;28;20011;-64
2021/08/28 01:58:37;;;;;;;;;;;;;;;24.31;51.32;99598.00;2056442;28;19921;-64
2021/08/28 01:59:37;;;;;;;;;;;;;;;24.31;51.40;99598.00;2057980;28;19921;-65
2021/08/28 02:00:38;;;;;;;;;;;;;;;24.30;51.33;99597.16;2059155;28;19918;-64
2021/08/28 02:01:38;;;;;;;;;;;;;;;24.28;51.22;99593.72;2058636;28;20003;-65
2021/08/28 02:02:38;;;;;;;;;;;;;;;24.30;51.32;99590.75;2056974;28;20797;-64
2021/08/28 02:03:38;;;;;;;;;;;;;;;24.30;51.33;99597.16;2060248;28;20019;-65
2021/08/28 02:04:39;;;;;;;;;;;;;;;24.29;51.29;99598.19;2057904;28;19937;-64
2021/08/28 02:05:41;;;;;;;;;;;;;;;24.30;51.33;99602.66;2059626;28;19928;-64
2021/08/28 02:06:46;;;;;;;;;;;;;;;24.30;51.37;99597.16;2058470;28;19921;-64
2021/08/28 02:07:52;;;;;;;;;;;;;;;24.29;51.43;99606.44;2055486;28;19924;-64
2021/08/28 02:09:01;;;;;;;;;;;;;;;24.29;51.29;99600.09;2057134;28;19921;-64
2021/08/28 02:10:08;;;;;;;;;;;;;;;24.29;51.32;99595.44;2058207;28;20400;-64
2021/08/28 02:11:13;;;;;;;;;;;;;;;24.29;51.10;99600.94;2056161;28;19917;-64
2021/08/28 02:12:16;;;;;;;;;;;;;;;24.29;51.40;99595.44;2056338;28;19953;-64
2021/08/28 02:13:35;;;;;;;;;;;;;;;24.29;51.29;99594.56;2059311;28;20455;-64
2021/08/28 02:14:38;;;;;;;;;;;;;;;24.29;51.25;99600.94;2058923;28;19917;-64
2021/08/28 02:15:44;;;;;;;;;;;;;;;24.29;51.34;99600.94;2057202;28;19941;-64
2021/08/28 02:16:45;;;;;;;;;;;;;;;24.28;51.23;99604.75;2055622;28;19921;-65
2021/08/28 02:17:48;;;;;;;;;;;;;;;24.28;51.31;99595.63;2055105;28;19921;-64
2021/08/28 02:18:53;;;;;;;;;;;;;;;24.27;51.26;99600.28;2054579;28;19949;-64
2021/08/28 02:19:55;;;;;;;;;;;;;;;24.27;51.11;99597.50;2059416;28;20067;-64
2021/08/28 02:20:57;;;;;;;;;;;;;;;24.27;51.25;99603.03;2059042;28;19921;-64
2021/08/28 02:21:59;;;;;;;;;;;;;;;24.28;51.24;99604.75;2058235;28;19918;-64
2021/08/28 02:23:03;;;;;;;;;;;;;;;24.28;51.10;99610.25;2058922;28;20013;-64
2021/08/28 02:24:06;;;;;;;;;;;;;;;24.28;51.33;99610.25;2059750;28;19968;-64
2021/08/28 02:25:10;;;;;;;;;;;;;;;24.27;51.16;99616.78;2056790;28;20024;-64
2021/08/28 02:26:19;;;;;;;;;;;;;;;24.27;51.19;99603.03;2067007;28;20118;-64
2021/08/28 02:27:28;;;;;;;;;;;;;;;24.28;51.17;99609.41;2062632;28;20682;-64
2021/08/28 02:28:37;;;;;;;;;;;;;;;24.27;51.34;99608.53;2053670;28;19972;-65
2021/08/28 02:29:40;;;;;;;;;;;;;;;24.27;51.26;99605.78;2061356;28;20362;-64
2021/08/28 02:30:40;;;;;;;;;;;;;;;24.26;51.28;99598.56;2054770;28;20997;-64
2021/08/28 02:31:43;;;;;;;;;;;;;;;24.26;51.26;99598.56;2060164;28;20312;-64
2021/08/28 02:32:44;;;;;;;;;;;;;;;24.26;51.27;99614.25;2058199;28;19913;-64
2021/08/28 02:33:45;;;;;;;;;;;;;;;24.26;51.30;99608.75;2054906;28;20024;-64
2021/08/28 02:34:47;;;;;;;;;;;;;;;24.26;51.23;99604.09;2057297;28;20285;-64
2021/08/28 02:35:48;;;;;;;;;;;;;;;24.26;51.15;99606.84;2058266;28;19917;-64
2021/08/28 02:36:48;;;;;;;;;;;;;;;24.25;51.20;99613.38;2058361;28;19928;-64
2021/08/28 02:37:50;;;;;;;;;;;;;;;24.25;51.16;99610.63;2053517;28;19926;-64
2021/08/28 02:38:52;;;;;;;;;;;;;;;24.26;51.31;99609.59;2058432;28;19913;-64
2021/08/28 02:39:54;;;;;;;;;;;;;;;24.26;51.09;99611.50;2058954;28;19921;-64
2021/08/28 02:40:56;;;;;;;;;;;;;;;24.25;51.26;99604.28;2056604;28;19910;-64
2021/08/28 02:41:57;;;;;;;;;;;;;;;24.26;51.21;99608.75;2055646;28;20288;-64
2021/08/28 02:42:58;;;;;;;;;;;;;;;24.24;51.29;99608.94;2060248;28;19909;-64
2021/08/28 02:44:00;;;;;;;;;;;;;;;24.25;51.26;99605.13;2058225;28;19921;-65
2021/08/28 02:45:01;;;;;;;;;;;;;;;24.25;51.20;99605.13;2058354;28;20003;-64
2021/08/28 02:46:02;;;;;;;;;;;;;;;24.24;51.30;99603.41;2071149;28;19921;-64
2021/08/28 02:47:03;;;;;;;;;;;;;;;24.23;51.25;99606.38;2072003;28;19909;-64
2021/08/28 02:48:04;;;;;;;;;;;;;;;24.23;51.24;99610.00;2066264;28;21684;-65
2021/08/28 02:49:06;;;;;;;;;;;;;;;24.24;51.32;99608.09;2057229;28;20411;-65
2021/08/28 02:50:06;;;;;;;;;;;;;;;24.24;51.25;99608.09;2058908;28;20369;-65
2021/08/28 02:51:10;;;;;;;;;;;;;;;24.24;51.17;99597.91;2052957;28;20358;-65
2021/08/28 02:52:14;;;;;;;;;;;;;;;24.24;51.21;99610.84;2056720;28;19987;-65
2021/08/28 02:53:16;;;;;;;;;;;;;;;24.22;51.34;99611.03;2067211;28;19964;-65
2021/08/28 02:54:17;;;;;;;;;;;;;;;24.23;51.34;99606.38;2065262;28;19921;-65
2021/08/28 02:55:18;;;;;;;;;;;;;;;24.23;51.29;99606.38;2058648;28;20381;-65
2021/08/28 02:56:21;;;;;;;;;;;;;;;24.22;51.26;99608.28;2059045;28;20339;-65
2021/08/28 02:57:22;;;;;;;;;;;;;;;24.23;51.24;99604.50;2054594;28;20620;-65
2021/08/28 02:58:23;;;;;;;;;;;;;;;24.23;51.23;99606.38;2058763;28;20692;-65
2021/08/28 02:59:24;;;;;;;;;;;;;;;24.22;51.27;99604.66;2055935;28;20594;-65
2021/08/28 03:00:25;;;;;;;;;;;;;;;24.22;51.17;99599.16;2055333;28;20443;-65
2021/08/28 03:01:27;;;;;;;;;;;;;;;24.20;51.29;99604.84;2058713;28;20320;-65
2021/08/28 03:02:27;;;;;;;;;;;;;;;24.20;51.22;99593.84;2056940;28;19920;-65
2021/08/28 03:03:28;;;;;;;;;;;;;;;24.20;51.32;99599.34;2052124;28;20632;-65
2021/08/28 03:04:28;;;;;;;;;;;;;;;24.22;51.34;99601.91;2062411;28;20299;-65
2021/08/28 03:05:29;;;;;;;;;;;;;;;24.21;51.24;99598.31;2055746;28;19920;-65
2021/08/28 03:06:30;;;;;;;;;;;;;;;24.21;51.30;99603.81;2059224;28;19917;-65
2021/08/28 03:07:31;;;;;;;;;;;;;;;24.20;51.30;99596.59;2056630;28;19928;-66
2021/08/28 03:08:33;;;;;;;;;;;;;;;24.21;51.32;99603.81;2053053;28;19914;-65
2021/08/28 03:09:36;;;;;;;;;;;;;;;24.20;51.31;99598.50;2062213;28;19917;-65
2021/08/28 03:10:36;;;;;;;;;;;;;;;24.20;51.20;99602.09;2055376;28;19917;-65
2021/08/28 03:11:36;;;;;;;;;;;;;;;24.20;51.22;99602.09;2058794;28;19928;-65
2021/08/28 03:12:37;;;;;;;;;;;;;;;24.19;51.18;99594.91;2071166;28;20070;-65
2021/08/28 03:13:38;;;;;;;;;;;;;;;24.19;51.23;99600.41;2068737;28;20408;-64
2021/08/28 03:14:38;;;;;;;;;;;;;;;24.20;51.18;99606.75;2059848;28;20327;-64
2021/08/28 03:15:41;;;;;;;;;;;;;;;24.20;51.21;99610.38;2056143;28;19984;-64
2021/08/28 03:16:42;;;;;;;;;;;;;;;24.20;51.22;99613.13;2056155;28;20226;-64
2021/08/28 03:17:43;;;;;;;;;;;;;;;24.20;51.15;99609.50;2058850;28;19905;-64
2021/08/28 03:18:45;;;;;;;;;;;;;;;24.20;51.23;99613.13;2058936;28;19921;-64
2021/08/28 03:19:46;;;;;;;;;;;;;;;24.19;51.30;99611.41;2059179;28;20300;-64
2021/08/28 03:20:48;;;;;;;;;;;;;;;24.19;51.17;99611.41;2055991;28;20008;-64
2021/08/28 03:21:49;;;;;;;;;;;;;;;24.18;51.29;99612.47;2058641;28;19968;-65
2021/08/28 03:22:50;;;;;;;;;;;;;;;24.18;51.26;99616.09;2056396;28;19917;-65
2021/08/28 03:23:50;;;;;;;;;;;;;;;24.18;51.22;99615.22;2056462;28;20025;-64
2021/08/28 03:24:52;;;;;;;;;;;;;;;24.18;51.33;99615.22;2060549;28;19918;-65
2021/08/28 03:25:53;;;;;;;;;;;;;;;24.19;51.24;99611.41;2058747;28;19917;-64
2021/08/28 03:26:54;;;;;;;;;;;;;;;24.18;51.32;99610.56;2055986;28;19918;-64
2021/08/28 03:27:54;;;;;;;;;;;;;;;24.18;51.27;99606.97;2057019;28;20201;-64
2021/08/28 03:28:56;;;;;;;;;;;;;;;24.18;51.33;99615.22;2060836;28;19991;-64
2021/08/28 03:29:57;;;;;;;;;;;;;;;24.19;51.39;99614.19;2061223;28;19953;-64
2021/08/28 03:30:57;;;;;;;;;;;;;;;24.18;51.27;99615.22;2059350;28;20039;-64
2021/08/28 03:31:59;;;;;;;;;;;;;;;24.17;51.33;99608.84;2058005;28;20352;-64
2021/08/28 03:32:59;;;;;;;;;;;;;;;24.17;51.35;99619.03;2059813;28;19937;-64
2021/08/28 03:34:00;;;;;;;;;;;;;;;24.17;51.30;99621.78;2059037;28;19921;-64
2021/08/28 03:35:02;;;;;;;;;;;;;;;24.17;51.35;99613.50;2060999;28;19968;-65
2021/08/28 03:36:02;;;;;;;;;;;;;;;24.16;51.28;99611.81;2074231;28;20025;-64
2021/08/28 03:37:03;;;;;;;;;;;;;;;24.17;51.30;99613.50;2073525;28;19926;-64
2021/08/28 03:38:03;;;;;;;;;;;;;;;24.17;51.27;99610.75;2059945;28;19925;-64
2021/08/28 03:39:04;;;;;;;;;;;;;;;24.17;51.23;99613.50;2058258;28;19933;-65
2021/08/28 03:40:08;;;;;;;;;;;;;;;24.17;51.25;99608.00;2057516;28;20862;-64
2021/08/28 03:41:09;;;;;;;;;;;;;;;24.18;51.33;99604.22;2061420;28;19940;-64
2021/08/28 03:42:09;;;;;;;;;;;;;;;24.16;51.26;99607.16;2059920;28;19921;-65
2021/08/28 03:43:10;;;;;;;;;;;;;;;24.16;51.32;99606.31;2058435;28;20328;-64
2021/08/28 03:44:14;;;;;;;;;;;;;;;24.16;51.21;99603.56;2057145;28;20076;-64
2021/08/28 03:45:15;;;;;;;;;;;;;;;24.16;51.24;99601.66;2062966;28;19956;-64
2021/08/28 03:46:15;;;;;;;;;;;;;;;24.16;51.27;99607.16;2068549;28;20008;-64
2021/08/28 03:47:16;;;;;;;;;;;;;;;24.16;51.21;99601.66;2057021;28;19921;-64
2021/08/28 03:48:17;;;;;;;;;;;;;;;24.16;51.26;99606.31;2064128;28;19926;-64
2021/08/28 03:49:17;;;;;;;;;;;;;;;24.16;51.17;99607.16;2061696;28;19925;-64
2021/08/28 03:50:17;;;;;;;;;;;;;;;24.16;51.33;99603.56;2063667;28;20104;-64
2021/08/28 03:51:18;;;;;;;;;;;;;;;24.15;51.32;99608.19;2066588;28;19925;-64
2021/08/28 03:52:18;;;;;;;;;;;;;;;24.15;51.25;99602.69;2063731;28;19932;-64
2021/08/28 03:53:18;;;;;;;;;;;;;;;24.16;51.18;99606.31;2061068;28;19929;-64
2021/08/28 03:54:19;;;;;;;;;;;;;;;24.16;51.31;99606.31;2055971;28;19952;-64
2021/08/28 03:55:19;;;;;;;;;;;;;;;24.15;51.30;99605.44;2059852;28;19925;-64
2021/08/28 03:56:20;;;;;;;;;;;;;;;24.15;51.23;99599.09;2059396;28;19956;-64
2021/08/28 03:57:20;;;;;;;;;;;;;;;24.15;51.48;99601.84;2060239;28;20231;-64
2021/08/28 03:58:20;;;;;;;;;;;;;;;24.15;51.25;99607.34;2058858;28;20355;-64
2021/08/28 03:59:20;;;;;;;;;;;;;;;24.14;51.18;99601.00;2061325;28;19936;-65
2021/08/28 04:00:21;;;;;;;;;;;;;;;24.14;51.25;99609.25;2058279;28;20277;-64
2021/08/28 04:01:21;;;;;;;;;;;;;;;24.14;51.25;99602.91;2061529;28;20556;-64
2021/08/28 04:02:22;;;;;;;;;;;;;;;24.13;51.20;99602.03;2061354;28;20629;-64
2021/08/28 04:03:22;;;;;;;;;;;;;;;24.13;51.24;99612.19;2062496;28;20343;-64
2021/08/28 04:04:22;;;;;;;;;;;;;;;24.13;51.32;99613.06;2061625;28;19928;-64
2021/08/28 04:05:23;;;;;;;;;;;;;;;24.14;51.22;99613.91;2059237;28;19921;-65
2021/08/28 04:06:23;;;;;;;;;;;;;;;24.14;51.21;99613.91;2057563;28;19918;-64
2021/08/28 04:07:23;;;;;;;;;;;;;;;24.14;51.06;99611.16;2059652;28;20621;-64
2021/08/28 04:08:24;;;;;;;;;;;;;;;24.14;51.24;99611.16;2058325;28;21022;-64
2021/08/28 04:09:24;;;;;;;;;;;;;;;24.13;51.30;99613.06;2057457;28;19922;-65
2021/08/28 04:10:25;;;;;;;;;;;;;;;24.14;51.27;99609.25;2060280;28;20136;-64
2021/08/28 04:11:25;;;;;;;;;;;;;;;24.13;51.28;99614.94;2060684;28;19918;-64
2021/08/28 04:12:25;;;;;;;;;;;;;;;24.11;51.25;99603.28;2060459;28;19967;-65
2021/08/28 04:13:26;;;;;;;;;;;;;;;24.11;51.29;99608.81;2058978;28;19925;-64
2021/08/28 04:14:26;;;;;;;;;;;;;;;24.13;51.19;99601.16;2075019;28;19942;-64
2021/08/28 04:15:26;;;;;;;;;;;;;;;24.12;51.27;99611.34;2071152;28;19951;-64
2021/08/28 04:16:27;;;;;;;;;;;;;;;24.13;51.17;99612.19;2058153;28;19921;-64
2021/08/28 04:17:27;;;;;;;;;;;;;;;24.11;51.25;99604.13;2060154;28;19953;-65
2021/08/28 04:18:27;;;;;;;;;;;;;;;24.12;51.17;99610.50;2057416;28;19921;-64
2021/08/28 04:19:28;;;;;;;;;;;;;;;24.11;51.30;99611.56;2060864;28;19921;-64
2021/08/28 04:20:28;;;;;;;;;;;;;;;24.12;51.20;99614.09;2061716;28;20396;-65
2021/08/28 04:21:28;;;;;;;;;;;;;;;24.11;51.14;99606.03;2062821;28;20454;-65
2021/08/28 04:22:29;;;;;;;;;;;;;;;24.11;51.25;99611.56;2057111;28;20016;-65
2021/08/28 04:23:29;;;;;;;;;;;;;;;24.12;51.31;99618.75;2057069;28;19967;-65
2021/08/28 04:24:29;;;;;;;;;;;;;;;24.11;51.28;99625.31;2060304;28;20369;-65
2021/08/28 04:25:30;;;;;;;;;;;;;;;24.10;51.25;99612.59;2062704;28;20014;-65
2021/08/28 04:26:30;;;;;;;;;;;;;;;24.10;51.10;99618.09;2059324;28;19918;-66
2021/08/28 04:27:30;;;;;;;;;;;;;;;24.09;51.33;99619.16;2057671;28;20700;-65
2021/08/28 04:28:31;;;;;;;;;;;;;;;24.10;51.18;99620.84;2059910;28;20476;-65
2021/08/28 04:29:31;;;;;;;;;;;;;;;24.09;51.36;99619.16;2061110;28;19913;-65
2021/08/28 04:30:32;;;;;;;;;;;;;;;24.10;51.16;99623.59;2057853;28;19921;-65
2021/08/28 04:31:32;;;;;;;;;;;;;;;24.08;51.21;99621.06;2059788;28;19922;-65
2021/08/28 04:32:33;;;;;;;;;;;;;;;24.09;51.17;99625.50;2059968;28;19921;-65
2021/08/28 04:33:33;;;;;;;;;;;;;;;24.09;51.21;99631.00;2058659;28;19993;-65
2021/08/28 04:34:33;;;;;;;;;;;;;;;24.10;51.06;99629.09;2060669;28;20027;-65
2021/08/28 04:35:34;;;;;;;;;;;;;;;24.08;51.18;99628.44;2060593;28;19921;-65
2021/08/28 04:36:34;;;;;;;;;;;;;;;24.09;51.17;99632.91;2058054;28;19921;-65
2021/08/28 04:37:35;;;;;;;;;;;;;;;24.08;51.24;99626.56;2058333;28;19921;-65
2021/08/28 04:38:35;;;;;;;;;;;;;;;24.09;51.22;99627.41;2056559;28;19924;-65
2021/08/28 04:39:35;;;;;;;;;;;;;;;24.09;51.06;99630.16;2076396;28;20038;-65
2021/08/28 04:40:37;;;;;;;;;;;;;;;24.09;51.21;99635.66;2074472;28;19920;-65
2021/08/28 04:41:37;;;;;;;;;;;;;;;24.08;51.17;99632.06;2057927;28;20757;-65
2021/08/28 04:42:37;;;;;;;;;;;;;;;24.08;50.98;99629.31;2057720;28;20874;-64
2021/08/28 04:43:37;;;;;;;;;;;;;;;24.09;51.10;99635.66;2072711;28;20372;-64
2021/08/28 04:44:38;;;;;;;;;;;;;;;24.08;51.22;99625.69;2075303;28;19917;-64
2021/08/28 04:45:38;;;;;;;;;;;;;;;24.08;51.17;99620.19;2057565;28;19917;-64
2021/08/28 04:46:38;;;;;;;;;;;;;;;24.07;51.22;99629.50;2060108;28;19972;-64
2021/08/28 04:47:39;;;;;;;;;;;;;;;24.07;51.19;99624.00;2057714;28;20000;-64
2021/08/28 04:48:39;;;;;;;;;;;;;;;24.08;51.17;99631.19;2055919;28;19979;-64
2021/08/28 04:49:39;;;;;;;;;;;;;;;24.07;51.30;99626.75;2057664;28;19922;-64
2021/08/28 04:50:40;;;;;;;;;;;;;;;24.07;50.96;99630.34;2059087;28;19999;-64
2021/08/28 04:51:40;;;;;;;;;;;;;;;24.07;51.15;99624.00;2060632;28;20384;-64
2021/08/28 04:52:40;;;;;;;;;;;;;;;24.06;51.23;99625.06;2058681;28;19921;-64
2021/08/28 04:53:41;;;;;;;;;;;;;;;24.06;51.21;99622.31;2058199;28;19975;-64
2021/08/28 04:54:41;;;;;;;;;;;;;;;24.06;50.99;99622.31;2058453;28;19925;-64
2021/08/28 04:55:41;;;;;;;;;;;;;;;24.05;51.09;99626.09;2059276;28;20711;-64
2021/08/28 04:56:41;;;;;;;;;;;;;;;24.06;51.16;99627.81;2059184;28;19936;-66
2021/08/28 04:57:42;;;;;;;;;;;;;;;24.05;51.28;99632.44;2060245;28;20015;-64
2021/08/28 04:58:44;;;;;;;;;;;;;;;24.06;51.20;99633.31;2057048;28;19922;-64
2021/08/28 04:59:44;;;;;;;;;;;;;;;24.05;51.25;99631.59;2059466;28;19925;-64
2021/08/28 05:00:44;;;;;;;;;;;;;;;24.04;51.14;99630.75;2055195;28;19929;-65
2021/08/28 05:01:45;;;;;;;;;;;;;;;24.05;51.18;99631.59;2055320;28;19928;-65
2021/08/28 05:02:45;;;;;;;;;;;;;;;24.04;51.11;99636.25;2059599;28;20335;-64
2021/08/28 05:03:45;;;;;;;;;;;;;;;24.05;51.17;99631.59;2057229;28;21096;-64
2021/08/28 05:04:46;;;;;;;;;;;;;;;24.05;51.14;99637.09;2060371;28;20446;-64
2021/08/28 05:05:46;;;;;;;;;;;;;;;24.04;51.07;99640.91;2056724;28;20428;-64
2021/08/28 05:06:46;;;;;;;;;;;;;;;24.04;51.13;99641.75;2057006;28;20413;-64
2021/08/28 05:07:47;;;;;;;;;;;;;;;24.04;51.22;99635.41;2058194;28;20002;-64
2021/08/28 05:08:47;;;;;;;;;;;;;;;24.04;51.26;99641.75;2058404;28;19918;-64
2021/08/28 05:09:47;;;;;;;;;;;;;;;24.03;51.18;99639.19;2057688;28;19933;-65
2021/08/28 05:10:48;;;;;;;;;;;;;;;24.04;51.13;99641.75;2057507;28;19921;-64
2021/08/28 05:11:48;;;;;;;;;;;;;;;24.03;51.28;99639.19;2055324;28;19922;-64
2021/08/28 05:12:48;;;;;;;;;;;;;;;24.03;51.33;99644.69;2061566;28;19929;-64
2021/08/28 05:13:51;;;;;;;;;;;;;;;24.03;51.25;99639.19;2056010;28;20392;-64
2021/08/28 05:14:51;;;;;;;;;;;;;;;24.01;51.23;99644.91;2060603;28;20300;-64
2021/08/28 05:15:52;;;;;;;;;;;;;;;24.03;51.17;99644.69;2055920;28;19925;-64
2021/08/28 05:16:52;;;;;;;;;;;;;;;24.03;51.27;99655.69;2057058;28;19917;-64
2021/08/28 05:17:52;;;;;;;;;;;;;;;24.03;51.30;99647.44;2060872;28;19924;-64
2021/08/28 05:18:52;;;;;;;;;;;;;;;24.02;51.21;99649.34;2057355;28;20004;-64
2021/08/28 05:19:53;;;;;;;;;;;;;;;24.02;51.21;99648.50;2057812;28;19917;-64